Time;durP1;ratioP1;P1;durP2;ratioP2;P2;SDS_P1;SDS_P2;PMS_P1;PMS_P2;Temp;Humidity;BMP_temperature;BMP_pressure;BME280_temperature;BME280_humidity;BME280_pressure;Samples;Min_cycle;Max_cycle;Signal;HPM_P1;HPM_P2
2021/03/31 00:00:44;;;;;;;7.15;3.80;;;;;;;10.51;45.86;99408.00;3982271;72;44434;-24
2021/03/31 00:05:50;;;;;;;6.90;3.62;;;;;;;10.45;46.21;99397.78;3989689;72;43735;-24
2021/03/31 00:10:56;;;;;;;4.97;3.33;;;;;;;10.42;46.45;99384.58;3988026;72;43707;-24
2021/03/31 00:16:02;;;;;;;6.20;3.85;;;;;;;10.39;46.68;99387.06;3969903;72;44055;-24
2021/03/31 00:21:08;;;;;;;5.97;3.40;;;;;;;10.35;46.87;99381.55;3981459;71;43924;-24
2021/03/31 00:26:14;;;;;;;6.15;3.62;;;;;;;10.29;47.09;99380.76;3988027;72;44136;-24
2021/03/31 00:31:20;;;;;;;8.10;3.72;;;;;;;10.23;47.22;99378.59;3990931;72;44598;-24
2021/03/31 00:36:26;;;;;;;7.45;3.37;;;;;;;10.14;47.56;99370.82;4028138;72;44211;-25
2021/03/31 00:41:32;;;;;;;7.53;3.42;;;;;;;10.02;47.95;99364.18;4066725;71;44012;-25
2021/03/31 00:46:38;;;;;;;5.50;3.33;;;;;;;9.91;48.42;99362.08;4022100;71;43343;-26
2021/03/31 00:51:44;;;;;;;5.55;3.72;;;;;;;9.81;48.80;99353.95;4060656;70;44038;-25
2021/03/31 00:56:50;;;;;;;4.75;3.67;;;;;;;9.74;49.03;99350.09;4020970;72;43296;-25
2021/03/31 01:01:56;;;;;;;4.97;3.05;;;;;;;9.64;49.48;99346.83;4045442;71;43291;-25
2021/03/31 01:07:02;;;;;;;5.65;3.95;;;;;;;9.56;49.76;99331.37;4040774;72;44439;-25
2021/03/31 01:12:13;;;;;;;7.53;4.17;;;;;;;9.45;50.40;99328.76;4058136;70;44562;-25
2021/03/31 01:17:23;;;;;;;7.25;3.92;;;;;;;9.33;50.97;99335.19;4071396;71;43568;-25
2021/03/31 01:23:05;;;;;;;6.22;3.20;;;;;;;9.23;51.42;99337.29;4047276;71;44041;-25
2021/03/31 01:28:37;;;;;;;6.80;3.52;;;;;;;9.14;51.73;99327.32;3992582;72;44523;-24
2021/03/31 01:34:03;;;;;;;4.10;3.00;;;;;;;9.07;52.07;99328.33;3999615;72;44132;-25
2021/03/31 01:39:11;;;;;;;5.17;3.70;;;;;;;8.97;52.59;99322.02;4043072;72;44113;-24
2021/03/31 01:44:20;;;;;;;6.92;3.77;;;;;;;8.88;53.17;99322.80;4032206;71;43458;-24
2021/03/31 01:49:28;;;;;;;6.37;3.35;;;;;;;8.79;53.55;99319.91;4073485;71;44057;-24
2021/03/31 01:54:35;;;;;;;8.25;3.30;;;;;;;8.73;54.19;99324.94;3996136;72;44016;-24
2021/03/31 01:59:42;;;;;;;7.72;3.60;;;;;;;8.71;54.55;99314.80;3960763;72;44169;-27
2021/03/31 02:04:50;;;;;;;7.20;3.30;;;;;;;8.68;55.01;99313.70;4002543;72;44055;-24
2021/03/31 02:09:58;;;;;;;6.67;3.70;;;;;;;8.59;55.71;99305.44;3999858;72;43250;-26
2021/03/31 02:15:06;;;;;;;7.70;4.00;;;;;;;8.49;56.62;99300.47;3989702;71;43726;-26
2021/03/31 02:20:14;;;;;;;5.80;3.27;;;;;;;8.42;57.99;99300.55;4039848;71;44064;-24
2021/03/31 02:25:22;;;;;;;7.35;3.62;;;;;;;8.31;58.35;99296.08;4034512;71;44367;-26
2021/03/31 02:30:29;;;;;;;4.90;2.90;;;;;;;8.23;59.54;99297.20;3992959;72;43459;-26
2021/03/31 02:35:36;;;;;;;5.47;3.72;;;;;;;8.13;60.03;99289.88;4023425;71;43231;-23
2021/03/31 02:40:46;;;;;;;6.08;3.67;;;;;;;8.06;61.13;99290.48;4018065;72;43656;-25
2021/03/31 02:45:55;;;;;;;4.97;3.47;;;;;;;8.00;61.70;99286.47;4044707;72;44056;-23
2021/03/31 02:51:01;;;;;;;5.37;3.47;;;;;;;7.94;62.44;99280.27;4032247;72;43300;-23
2021/03/31 02:56:09;;;;;;;5.85;4.08;;;;;;;7.90;63.42;99278.80;4048865;71;44078;-23
2021/03/31 03:01:15;;;;;;;5.58;3.80;;;;;;;7.78;64.44;99273.44;4045553;71;43721;-23
2021/03/31 03:06:22;;;;;;;6.47;3.85;;;;;;;7.66;66.15;99269.05;4060806;71;44026;-25
2021/03/31 03:11:28;;;;;;;6.22;3.80;;;;;;;7.60;66.86;99265.02;4041794;72;43663;-23
2021/03/31 03:21:40;;;;;;;8.43;4.03;;;;;;;7.51;70.00;99247.86;3990211;73;32450;-24
2021/03/31 03:26:46;;;;;;;6.03;4.08;;;;;;;7.35;70.06;99251.37;3934155;74;43417;-24
2021/03/31 03:31:53;;;;;;;8.88;3.83;;;;;;;7.36;70.06;99247.22;3919283;75;44279;-25
2021/03/31 03:36:59;;;;;;;5.92;3.90;;;;;;;7.37;71.65;99247.59;3925649;73;43713;-24
2021/03/31 03:42:07;;;;;;;7.92;3.70;;;;;;;7.33;72.04;99246.14;3918148;75;44011;-25
2021/03/31 03:47:13;;;;;;;5.75;3.87;;;;;;;7.30;71.00;99243.69;3928355;75;44043;-22
2021/03/31 03:52:20;;;;;;;6.85;4.00;;;;;;;7.24;71.78;99245.49;3920789;73;44425;-22
2021/03/31 03:57:28;;;;;;;5.70;3.55;;;;;;;7.18;72.17;99233.92;3960818;73;43778;-22
2021/03/31 04:02:34;;;;;;;6.42;4.28;;;;;;;7.08;73.99;99230.63;3895987;75;44205;-22
2021/03/31 04:07:40;;;;;;;9.68;3.95;;;;;;;7.03;74.47;99224.76;3895410;75;42803;-22
2021/03/31 04:12:49;;;;;;;6.90;4.17;;;;;;;6.98;74.83;99229.64;3910922;75;44406;-24
2021/03/31 04:17:58;;;;;;;6.90;4.20;;;;;;;6.93;75.69;99223.77;3894676;75;43119;-24
2021/03/31 04:23:04;;;;;;;6.97;4.33;;;;;;;6.86;78.34;99225.22;3863636;76;43361;-23
2021/03/31 04:28:12;;;;;;;8.75;4.47;;;;;;;6.80;76.59;99225.20;3758943;77;44057;-23
2021/03/31 04:33:18;;;;;;;7.25;4.35;;;;;;;6.73;77.84;99226.16;3920910;75;43686;-22
2021/03/31 04:38:24;;;;;;;6.25;4.20;;;;;;;6.67;78.69;99225.27;3925580;75;44102;-22
2021/03/31 04:43:32;;;;;;;7.17;4.28;;;;;;;6.62;79.47;99222.10;3860528;75;43502;-23
2021/03/31 04:48:39;;;;;;;5.78;4.28;;;;;;;6.63;80.51;99217.12;3902153;75;43709;-23
2021/03/31 04:53:44;;;;;;;8.60;4.08;;;;;;;6.61;81.16;99221.73;3858862;76;43432;-24
2021/03/31 04:58:51;;;;;;;7.55;4.33;;;;;;;6.58;80.47;99212.12;3861416;75;44101;-23
2021/03/31 05:03:57;;;;;;;6.80;4.10;;;;;;;6.56;80.64;99220.74;3925585;75;44034;-23
2021/03/31 05:09:03;;;;;;;7.17;4.80;;;;;;;6.54;81.59;99216.45;3920061;74;44121;-23
2021/03/31 05:14:11;;;;;;;5.47;4.05;;;;;;;6.56;81.13;99221.21;3858560;75;44067;-23
2021/03/31 05:19:17;;;;;;;6.75;4.15;;;;;;;6.55;81.24;99219.03;3881923;74;44614;-23
2021/03/31 05:24:23;;;;;;;8.60;4.08;;;;;;;6.53;82.21;99218.75;3922953;74;43466;-23
2021/03/31 05:29:31;;;;;;;7.55;4.62;;;;;;;6.53;82.98;99214.73;3918658;74;43500;-22
2021/03/31 05:34:36;;;;;;;7.85;4.70;;;;;;;6.56;83.16;99220.74;3975862;74;43444;-23
2021/03/31 05:39:43;;;;;;;8.38;4.53;;;;;;;6.60;82.98;99216.01;3961321;74;43563;-24
2021/03/31 05:44:50;;;;;;;8.60;4.33;;;;;;;6.62;83.39;99208.72;3907276;76;44832;-23
2021/03/31 05:49:56;;;;;;;8.00;4.65;;;;;;;6.65;83.78;99211.64;3924836;74;43700;-23
2021/03/31 05:55:03;;;;;;;9.53;4.60;;;;;;;6.71;83.59;99211.16;3976021;74;43428;-23
2021/03/31 06:00:12;;;;;;;9.50;4.70;;;;;;;6.75;83.91;99212.17;3968104;74;43286;-23
2021/03/31 06:05:19;;;;;;;6.80;4.30;;;;;;;6.83;84.96;99210.72;3907463;76;44006;-23
2021/03/31 06:10:27;;;;;;;8.03;5.05;;;;;;;6.97;84.96;99210.52;3923233;74;43210;-22
2021/03/31 06:15:37;;;;;;;8.63;5.00;;;;;;;7.14;85.45;99211.01;3907617;76;43069;-22
2021/03/31 06:20:50;;;;;;;9.43;5.60;;;;;;;7.29;84.53;99215.17;3916339;74;44081;-22
2021/03/31 06:25:59;;;;;;;7.22;4.62;;;;;;;7.43;85.33;99216.75;3935607;75;44011;-23
2021/03/31 06:31:09;;;;;;;8.60;4.62;;;;;;;7.59;83.79;99211.52;3903190;74;44359;-23
2021/03/31 06:36:17;;;;;;;6.17;4.58;;;;;;;7.79;82.46;99206.74;3868587;77;43712;-23
2021/03/31 06:41:28;;;;;;;8.95;4.55;;;;;;;7.97;80.19;99203.05;3903405;75;43552;-23
2021/03/31 06:46:41;;;;;;;7.00;4.12;;;;;;;8.07;81.04;99194.23;3916392;74;43692;-23
2021/03/31 06:51:46;;;;;;;5.62;4.25;;;;;;;8.12;80.95;99190.70;3909824;75;44612;-23
2021/03/31 06:56:56;;;;;;;6.62;4.25;;;;;;;8.26;81.06;99192.23;3935099;75;44092;-23
2021/03/31 07:02:04;;;;;;;9.13;4.45;;;;;;;8.49;80.15;99190.36;3935189;75;44079;-23
2021/03/31 07:07:11;;;;;;;8.28;4.70;;;;;;;8.63;80.84;99186.02;3935047;75;43984;-23
2021/03/31 07:12:22;;;;;;;7.75;4.40;;;;;;;8.82;80.22;99190.32;3886328;75;43450;-23
2021/03/31 07:17:28;;;;;;;9.48;4.67;;;;;;;9.10;78.44;99186.11;3868043;75;43425;-23
2021/03/31 07:22:34;;;;;;;7.03;4.85;;;;;;;9.34;75.49;99182.27;3924381;74;43947;-22
2021/03/31 07:27:44;;;;;;;7.97;4.87;;;;;;;9.45;75.72;99175.45;3974972;74;44574;-23
2021/03/31 07:32:55;;;;;;;7.08;4.80;;;;;;;9.65;75.92;99175.50;3917507;74;44017;-23
2021/03/31 07:38:05;;;;;;;8.05;5.20;;;;;;;9.86;74.31;99172.73;3906912;76;43490;-23
2021/03/31 07:43:14;;;;;;;6.40;4.53;;;;;;;10.07;74.87;99173.95;3968853;74;44019;-23
2021/03/31 07:48:21;;;;;;;8.63;5.05;;;;;;;10.34;73.18;99173.78;3975223;74;43436;-23
2021/03/31 07:53:27;;;;;;;6.15;4.67;;;;;;;10.46;72.16;99170.50;3910171;74;44717;-24
2021/03/31 07:58:33;;;;;;;11.18;5.47;;;;;;;10.77;72.25;99163.58;3907201;75;44718;-23
2021/03/31 08:03:41;;;;;;;6.65;4.83;;;;;;;11.04;70.49;99164.16;3907282;75;44060;-22
2021/03/31 08:09:03;;;;;;;9.00;5.40;;;;;;;11.36;68.04;99152.63;3909022;74;44181;-23
2021/03/31 08:14:10;;;;;;;9.23;5.40;;;;;;;11.66;67.90;99150.14;3916047;74;43483;-23
2021/03/31 08:19:18;;;;;;;8.15;5.37;;;;;;;11.89;68.02;99149.72;3915354;74;43412;-23
2021/03/31 08:24:41;;;;;;;8.70;5.35;;;;;;;12.01;68.38;99142.27;3935991;74;43460;-23
2021/03/31 08:29:51;;;;;;;9.88;5.33;;;;;;;12.29;67.19;99147.63;3920655;75;43696;-23
2021/03/31 08:34:57;;;;;;;7.85;4.97;;;;;;;12.76;63.79;99141.08;3868616;75;43514;-23
2021/03/31 08:40:06;;;;;;;9.23;5.22;;;;;;;13.25;61.41;99139.20;3886837;75;43690;-23
2021/03/31 08:45:23;;;;;;;13.53;5.50;;;;;;;13.66;56.77;99130.45;3935705;75;43373;-23
2021/03/31 08:50:34;;;;;;;13.60;5.37;;;;;;;13.98;57.58;99127.00;3892391;75;44451;-23
2021/03/31 08:55:42;;;;;;;10.45;5.92;;;;;;;14.37;55.58;99124.16;3935740;74;44043;-24
2021/03/31 09:00:51;;;;;;;10.78;5.53;;;;;;;14.76;54.27;99122.66;3933865;75;42810;-24
2021/03/31 09:06:02;;;;;;;9.30;5.60;;;;;;;15.10;54.28;99117.02;3932166;75;44019;-23
2021/03/31 09:11:08;;;;;;;10.25;5.90;;;;;;;15.55;52.04;99107.01;3900602;75;44447;-24
2021/03/31 09:16:15;;;;;;;8.75;5.70;;;;;;;15.89;50.50;99108.56;3868709;76;43964;-24
2021/03/31 09:21:29;;;;;;;11.05;5.17;;;;;;;16.27;49.78;99111.38;3889769;74;43713;-24
2021/03/31 09:26:35;;;;;;;10.98;6.10;;;;;;;16.67;47.80;99100.83;3975514;74;43968;-24
2021/03/31 09:31:41;;;;;;;13.00;6.62;;;;;;;17.01;46.80;99094.06;3934480;74;42743;-24
2021/03/31 09:37:00;;;;;;;13.15;6.50;;;;;;;17.30;44.46;99093.75;3907130;76;43689;-23
2021/03/31 09:42:09;;;;;;;12.35;6.65;;;;;;;17.59;45.08;99081.12;3906982;76;43402;-23
2021/03/31 09:47:16;;;;;;;11.93;5.78;;;;;;;17.81;43.07;99080.66;3907428;76;44006;-25
2021/03/31 09:52:28;;;;;;;14.47;6.35;;;;;;;17.99;44.32;99070.72;3917774;74;43997;-24
2021/03/31 09:57:37;;;;;;;9.18;6.45;;;;;;;18.19;44.54;99075.02;3907091;76;43234;-24
2021/03/31 10:02:46;;;;;;;12.05;6.85;;;;;;;18.50;43.52;99066.17;3907149;74;44163;-24
2021/03/31 10:07:59;;;;;;;11.25;6.47;;;;;;;18.71;42.26;99062.03;3907051;74;44167;-24
2021/03/31 10:13:05;;;;;;;14.00;6.80;;;;;;;18.92;43.82;99056.18;3922912;74;43351;-24
2021/03/31 10:18:14;;;;;;;12.28;7.37;;;;;;;19.16;41.98;99043.98;3907225;76;43597;-24
2021/03/31 10:23:30;;;;;;;13.32;7.50;;;;;;;19.45;42.51;99037.89;3970563;74;43986;-24
2021/03/31 10:28:39;;;;;;;11.53;7.53;;;;;;;19.66;41.60;99031.97;3971347;74;43621;-24
2021/03/31 10:33:47;;;;;;;13.83;7.40;;;;;;;19.97;41.01;99022.42;3765957;79;43353;-24
2021/03/31 10:39:10;;;;;;;11.30;7.78;;;;;;;20.07;40.22;99024.73;3815306;77;44471;-24
2021/03/31 10:49:32;;;;;;;11.78;7.60;;;;;;;20.53;39.64;99015.69;3941231;74;44112;-24
2021/03/31 10:54:37;;;;;;;11.83;7.60;;;;;;;20.65;38.53;99011.80;3988487;74;43768;-24
2021/03/31 10:59:43;;;;;;;11.22;6.83;;;;;;;20.63;37.38;99001.07;3988601;74;44690;-24
2021/03/31 11:04:49;;;;;;;13.90;7.15;;;;;;;20.87;36.66;99002.84;3989004;74;42789;-24
2021/03/31 11:09:55;;;;;;;13.30;7.25;;;;;;;20.88;36.57;98996.83;3971877;74;43208;-25
2021/03/31 11:15:02;;;;;;;15.28;7.15;;;;;;;20.95;34.88;98992.16;3918445;75;44065;-25
2021/03/31 11:20:22;;;;;;;12.65;7.67;;;;;;;21.05;36.57;98990.35;3920333;75;44482;-24
2021/03/31 11:30:56;;;;;;;14.43;8.03;;;;;;;21.25;34.39;98985.63;3858090;76;43713;-25
2021/03/31 11:36:02;;;;;;;13.30;7.08;;;;;;;21.11;34.28;98977.14;3814005;78;43724;-25
2021/03/31 11:41:08;;;;;;;11.43;6.72;;;;;;;21.25;34.27;98969.73;3813690;78;44031;-25
2021/03/31 11:46:15;;;;;;;11.68;6.80;;;;;;;21.40;36.42;98966.70;3814220;78;44731;-25
2021/03/31 11:51:21;;;;;;;10.63;7.00;;;;;;;21.72;34.84;98950.30;3836022;77;43483;-24
2021/03/31 11:56:27;;;;;;;10.35;6.55;;;;;;;21.86;34.88;98952.45;3990300;74;43402;-24
2021/03/31 12:01:35;;;;;;;10.58;7.05;;;;;;;22.15;34.85;98943.23;3989618;74;43666;-24
2021/03/31 12:06:41;;;;;;;10.05;6.15;;;;;;;22.26;35.14;98926.58;3989101;74;43483;-25
2021/03/31 12:11:47;;;;;;;8.88;6.35;;;;;;;22.43;35.62;98925.49;3973779;74;44072;-25
2021/03/31 12:16:55;;;;;;;8.95;6.10;;;;;;;22.53;35.09;98915.34;3989212;74;45920;-25
2021/03/31 12:22:02;;;;;;;12.15;6.92;;;;;;;22.64;36.15;98907.72;3941831;74;44071;-25
2021/03/31 12:27:09;;;;;;;9.78;7.40;;;;;;;22.57;34.21;98903.70;3868556;75;43326;-25
2021/03/31 12:32:16;;;;;;;9.65;5.67;;;;;;;22.71;34.08;98894.77;3868255;76;44020;-26
2021/03/31 12:37:23;;;;;;;9.43;5.12;;;;;;;22.82;34.53;98883.53;3868288;76;43429;-25
2021/03/31 12:42:29;;;;;;;9.78;5.40;;;;;;;23.22;34.07;98883.05;3919251;75;44017;-25
2021/03/31 12:47:35;;;;;;;9.93;5.72;;;;;;;23.55;32.98;98874.84;3903258;75;44062;-25
2021/03/31 12:52:44;;;;;;;9.68;5.37;;;;;;;23.63;30.36;98865.97;3921014;75;43377;-25
2021/03/31 12:57:50;;;;;;;6.83;4.35;;;;;;;23.91;30.61;98854.81;3935371;75;44028;-25
2021/03/31 13:02:57;;;;;;;9.50;5.28;;;;;;;23.92;31.33;98849.61;3932446;75;43287;-25
2021/03/31 13:08:07;;;;;;;11.75;5.58;;;;;;;24.21;30.59;98844.27;3927506;75;42822;-25
2021/03/31 13:13:21;;;;;;;11.53;5.15;;;;;;;24.14;30.41;98839.70;3928364;75;42567;-25
2021/03/31 13:29:43;;;;;;;9.85;4.78;;;;;;;25.11;30.08;98824.65;3890854;74;44086;-24
2021/03/31 13:34:50;;;;;;;7.50;4.45;;;;;;;24.83;30.11;98820.80;3941398;74;43323;-24
2021/03/31 13:39:57;;;;;;;9.15;5.10;;;;;;;25.10;29.68;98821.07;3937134;74;43682;-24
2021/03/31 13:45:04;;;;;;;10.32;4.60;;;;;;;24.83;29.00;98813.91;3975480;74;43584;-24
2021/03/31 13:50:13;;;;;;;13.15;8.83;;;;;;;25.70;29.88;98816.05;3975373;74;44597;-24
2021/03/31 13:55:21;;;;;;;12.58;8.88;;;;;;;25.29;31.22;98815.33;3975507;74;44675;-25
2021/03/31 14:00:28;;;;;;;14.80;9.20;;;;;;;25.92;30.71;98801.50;3960844;74;44042;-25
2021/03/31 14:05:34;;;;;;;12.80;9.28;;;;;;;25.27;31.37;98786.64;3974829;74;43697;-25
2021/03/31 14:10:42;;;;;;;14.63;9.60;;;;;;;25.36;30.88;98782.90;3931602;74;43725;-25
2021/03/31 14:15:48;;;;;;;16.32;10.63;;;;;;;25.09;31.00;98780.80;3923705;74;43685;-25
2021/03/31 14:20:56;;;;;;;12.43;9.55;;;;;;;24.46;31.61;98765.50;3936943;74;42770;-24
2021/03/31 14:26:02;;;;;;;13.35;9.25;;;;;;;24.51;32.23;98761.48;3927921;73;43711;-25
2021/03/31 14:31:09;;;;;;;12.73;8.63;;;;;;;24.77;31.51;98760.62;3922200;73;43117;-25
2021/03/31 14:36:15;;;;;;;13.93;8.75;;;;;;;25.33;31.14;98750.33;3841799;75;43710;-25
2021/03/31 14:41:21;;;;;;;12.30;9.38;;;;;;;25.53;30.41;98746.55;3829373;76;44049;-25
2021/03/31 14:46:29;;;;;;;16.67;10.65;;;;;;;25.50;30.62;98740.14;3828069;76;43025;-26
2021/03/31 14:57:09;;;;;;;11.88;8.48;;;;;;;25.35;29.95;98721.41;3817277;76;43660;-25
2021/03/31 15:02:15;;;;;;;14.68;8.85;;;;;;;25.79;30.08;98723.48;3817930;76;44729;-26
2021/03/31 15:07:21;;;;;;;14.98;9.48;;;;;;;26.30;29.65;98715.60;3825866;77;43722;-26
2021/03/31 15:12:27;;;;;;;9.45;7.92;;;;;;;26.39;28.81;98704.41;3846188;76;44535;-26
2021/03/31 15:17:35;;;;;;;15.08;8.93;;;;;;;26.48;29.67;98699.80;3821123;76;43829;-26
2021/03/31 15:22:46;;;;;;;14.35;9.75;;;;;;;26.46;29.58;98698.13;3818417;76;44655;-26
2021/03/31 15:27:54;;;;;;;11.73;8.63;;;;;;;26.22;29.21;98695.35;3794114;76;43413;-26
2021/03/31 15:33:00;;;;;;;10.32;7.62;;;;;;;26.25;29.78;98683.80;3897020;75;44469;-26
2021/03/31 15:38:06;;;;;;;11.55;8.68;;;;;;;26.67;29.17;98679.00;3897890;75;43679;-26
2021/03/31 15:43:12;;;;;;;20.45;8.35;;;;;;;26.75;29.00;98679.08;3897867;75;43983;-15
2021/03/31 15:48:18;;;;;;;12.90;8.23;;;;;;;27.12;29.13;98670.05;3908633;74;43669;-26
2021/03/31 15:53:24;;;;;;;11.63;8.10;;;;;;;27.07;28.33;98668.60;3890156;74;43712;-26
2021/03/31 15:58:30;;;;;;;14.90;9.55;;;;;;;26.89;28.78;98667.06;3901051;75;43694;-26
2021/03/31 16:03:38;;;;;;;11.00;8.68;;;;;;;26.85;29.38;98660.41;3863666;75;43390;-27
2021/03/31 16:08:44;;;;;;;18.17;10.03;;;;;;;26.76;29.63;98662.78;3733630;78;44856;-25
2021/03/31 16:13:49;;;;;;;13.38;9.93;;;;;;;26.98;29.35;98657.22;3735051;79;43627;-25
2021/03/31 16:18:55;;;;;;;14.35;9.80;;;;;;;26.67;30.30;98653.30;3730292;78;43397;-26
2021/03/31 16:24:01;;;;;;;11.97;9.38;;;;;;;26.71;30.74;98652.52;3733300;78;44446;-26
2021/03/31 16:29:19;;;;;;;14.20;10.30;;;;;;;26.56;30.59;98650.98;3782320;77;43668;-26
2021/03/31 16:34:17;;;;;;;16.62;10.28;;;;;;;26.49;30.61;98651.74;3780460;77;44443;-26
2021/03/31 16:39:24;;;;;;;13.70;9.85;;;;;;;26.32;30.80;98637.47;3780855;78;43459;-26
2021/03/31 16:44:30;;;;;;;15.40;9.88;;;;;;;26.11;31.66;98630.88;3783060;78;44542;-26
2021/03/31 16:49:36;;;;;;;14.95;10.65;;;;;;;25.79;31.99;98623.28;3779008;78;42946;-26
2021/03/31 16:54:42;;;;;;;16.00;9.48;;;;;;;25.49;31.88;98616.28;3782304;78;44087;-26
2021/03/31 16:59:48;;;;;;;14.13;9.68;;;;;;;25.24;32.54;98613.41;3781867;77;43487;-26
2021/03/31 17:04:55;;;;;;;16.97;11.75;;;;;;;25.07;32.21;98616.19;3779830;77;44179;-26
2021/03/31 17:10:05;;;;;;;15.13;9.95;;;;;;;24.67;32.63;98608.88;3781499;77;42828;-26
2021/03/31 17:15:12;;;;;;;15.32;11.10;;;;;;;24.58;32.59;98601.03;3778321;78;42412;-26
2021/03/31 17:20:19;;;;;;;16.93;11.70;;;;;;;24.43;32.51;98594.72;3782032;78;43991;-26
2021/03/31 17:25:25;;;;;;;16.77;10.45;;;;;;;24.05;32.50;98599.52;3775343;77;43736;-26
2021/03/31 17:30:31;;;;;;;16.32;10.13;;;;;;;23.48;32.95;98597.77;3734043;78;44429;-26
2021/03/31 17:35:37;;;;;;;19.40;10.72;;;;;;;23.22;32.63;98596.38;3733389;78;43160;-25
2021/03/31 17:40:47;;;;;;;14.98;10.08;;;;;;;22.80;33.29;98600.55;3734638;79;44029;-25
2021/03/31 17:45:53;;;;;;;17.17;10.82;;;;;;;22.29;33.88;98595.38;3734137;79;44031;-24
2021/03/31 17:51:04;;;;;;;14.53;9.88;;;;;;;22.06;34.11;98592.84;3733153;79;43306;-26
2021/03/31 17:56:08;;;;;;;17.98;12.15;;;;;;;21.79;34.33;98597.33;3736345;78;44109;-25
2021/03/31 18:01:14;;;;;;;16.42;11.40;;;;;;;21.11;36.33;98603.19;3735821;78;43690;-25
2021/03/31 18:06:20;;;;;;;18.23;11.57;;;;;;;20.82;37.07;98604.20;3737019;78;43948;-25
2021/03/31 18:11:26;;;;;;;14.83;9.40;;;;;;;20.47;37.74;98610.95;3719546;78;44067;-25
2021/03/31 18:16:32;;;;;;;18.90;11.18;;;;;;;19.71;39.46;98607.97;3718456;79;42893;-25
2021/03/31 18:21:38;;;;;;;18.52;9.58;;;;;;;19.51;39.20;98609.94;3710833;79;42750;-25
2021/03/31 18:26:44;;;;;;;15.75;9.88;;;;;;;19.43;38.39;98600.61;3721577;78;44021;-25
2021/03/31 18:31:50;;;;;;;17.90;11.22;;;;;;;19.16;38.96;98607.49;3742717;77;43466;-25
2021/03/31 18:36:56;;;;;;;18.20;11.15;;;;;;;18.72;40.76;98609.80;3758941;79;43388;-25
2021/03/31 18:42:07;;;;;;;18.07;11.15;;;;;;;18.24;42.23;98618.98;3757726;77;43725;-25
2021/03/31 18:47:10;;;;;;;16.85;10.68;;;;;;;17.89;42.93;98615.80;3756330;77;43745;-24
2021/03/31 18:52:16;;;;;;;17.10;10.43;;;;;;;17.44;44.01;98605.34;3757876;77;44034;-24
2021/03/31 18:57:23;;;;;;;16.70;10.28;;;;;;;17.67;42.58;98611.01;3758662;79;43305;-24
2021/03/31 19:02:29;;;;;;;17.87;9.13;;;;;;;17.24;44.37;98607.41;3758582;79;43721;-26
2021/03/31 19:07:35;;;;;;;15.35;9.80;;;;;;;16.87;45.18;98614.90;3759053;77;43362;-24
2021/03/31 19:12:41;;;;;;;18.57;9.38;;;;;;;16.96;44.43;98610.69;3758316;79;44074;-24
2021/03/31 19:17:47;;;;;;;13.40;8.50;;;;;;;16.85;44.59;98611.53;3760772;77;44379;-24
2021/03/31 19:22:53;;;;;;;5.60;4.20;;;;;;;17.01;43.57;98610.92;3758270;77;44004;-24
2021/03/31 19:27:59;;;;;;;5.80;3.77;;;;;;;17.18;42.13;98613.67;3744754;78;44092;-24
2021/03/31 19:33:06;;;;;;;6.15;4.28;;;;;;;17.25;41.61;98613.72;3734977;78;44094;-24
2021/03/31 19:38:13;;;;;;;6.75;4.30;;;;;;;17.25;41.38;98615.91;3734571;79;44083;-25
2021/03/31 19:43:19;;;;;;;6.40;4.53;;;;;;;17.22;41.37;98617.69;3735154;78;42787;-25
2021/03/31 19:48:24;;;;;;;8.23;4.55;;;;;;;17.17;41.38;98616.07;3730602;78;44199;-25
2021/03/31 19:53:31;;;;;;;8.05;3.90;;;;;;;17.09;41.48;98612.15;3733873;78;43033;-25
2021/03/31 19:58:37;;;;;;;5.00;4.00;;;;;;;17.00;41.63;98615.53;3734232;78;44100;-25
2021/03/31 20:03:43;;;;;;;5.70;4.10;;;;;;;16.83;41.88;98613.59;3734652;79;44090;-26
2021/03/31 20:08:49;;;;;;;7.90;4.30;;;;;;;16.63;42.27;98607.48;3731460;79;43357;-24
2021/03/31 20:13:56;;;;;;;8.08;4.30;;;;;;;16.53;42.36;98599.32;3734697;79;43673;-24
2021/03/31 20:19:02;;;;;;;7.37;3.80;;;;;;;16.47;42.18;98591.42;3734718;78;43002;-26
2021/03/31 20:24:09;;;;;;;5.62;3.70;;;;;;;16.41;42.10;98593.05;3730958;78;44522;-26
2021/03/31 20:29:15;;;;;;;6.87;3.83;;;;;;;16.36;42.11;98587.88;3734938;78;44068;-24
2021/03/31 20:34:23;;;;;;;6.95;3.47;;;;;;;16.29;41.99;98586.45;3733767;78;44267;-25
2021/03/31 20:39:29;;;;;;;6.85;3.65;;;;;;;16.24;41.90;98584.31;3734726;79;43680;-24
2021/03/31 20:44:35;;;;;;;5.75;3.58;;;;;;;16.18;41.88;98587.79;3734164;79;44077;-24
2021/03/31 20:49:41;;;;;;;5.25;3.00;;;;;;;16.08;42.00;98578.61;3734416;79;43109;-26
2021/03/31 20:54:46;;;;;;;5.83;3.20;;;;;;;15.95;42.23;98575.22;3734251;78;43723;-24
2021/03/31 20:59:52;;;;;;;4.62;3.37;;;;;;;15.74;42.85;98579.23;3734166;78;44083;-24
2021/03/31 21:04:58;;;;;;;5.00;3.62;;;;;;;15.59;43.06;98573.84;3733975;78;44203;-26
2021/03/31 21:10:07;;;;;;;8.40;3.62;;;;;;;15.56;42.92;98569.64;3733069;79;44227;-26
2021/03/31 21:15:14;;;;;;;4.55;3.20;;;;;;;15.51;43.05;98572.06;3734564;79;43193;-24
2021/03/31 21:20:20;;;;;;;8.18;3.77;;;;;;;15.40;43.10;98572.05;3734543;79;43337;-24
2021/03/31 21:25:26;;;;;;;5.08;3.52;;;;;;;15.27;43.34;98561.84;3734281;79;43487;-26
2021/03/31 21:30:33;;;;;;;5.78;3.72;;;;;;;15.16;43.74;98563.17;3751427;78;44128;-24
2021/03/31 21:35:39;;;;;;;6.55;3.40;;;;;;;15.07;43.92;98572.41;3759382;77;44061;-24
2021/03/31 21:40:44;;;;;;;7.97;4.25;;;;;;;15.06;44.01;98572.94;3757799;77;44750;-24
2021/03/31 21:45:50;;;;;;;6.08;4.05;;;;;;;14.97;44.22;98566.42;3758511;79;43000;-24
2021/03/31 21:50:58;;;;;;;6.95;4.15;;;;;;;14.75;44.83;98556.82;3749642;79;43664;-24
2021/03/31 21:56:05;;;;;;;5.92;4.08;;;;;;;14.69;44.83;98564.36;3754722;79;44164;-24
2021/03/31 22:01:12;;;;;;;4.67;4.00;;;;;;;14.68;44.89;98569.45;3758470;79;44025;-24
2021/03/31 22:06:18;;;;;;;6.58;3.70;;;;;;;14.58;45.07;98571.02;3759077;77;44085;-24
2021/03/31 22:11:24;;;;;;;5.72;3.77;;;;;;;14.48;45.37;98572.12;3759453;77;42946;-24
2021/03/31 22:16:30;;;;;;;7.22;3.90;;;;;;;14.42;45.40;98578.27;3757691;77;43600;-24
2021/03/31 22:21:38;;;;;;;6.33;3.65;;;;;;;14.31;45.67;98578.69;3758525;79;44053;-24
2021/03/31 22:26:44;;;;;;;4.72;3.60;;;;;;;14.29;45.61;98567.19;3758940;77;44073;-24
2021/03/31 22:31:50;;;;;;;7.12;3.70;;;;;;;14.19;45.80;98572.88;3758511;79;44049;-24
2021/03/31 22:36:56;;;;;;;6.62;4.00;;;;;;;14.09;45.97;98564.97;3758682;79;44058;-24
2021/03/31 22:42:02;;;;;;;9.40;3.90;;;;;;;13.97;46.30;98564.56;3758044;77;44497;-24
2021/03/31 22:47:08;;;;;;;6.67;3.70;;;;;;;13.88;46.43;98556.14;3760819;77;43348;-24
2021/03/31 22:52:15;;;;;;;4.42;3.45;;;;;;;13.78;46.66;98553.68;3757594;77;44111;-24
2021/03/31 22:57:21;;;;;;;6.00;4.10;;;;;;;13.70;47.00;98548.32;3758518;79;43393;-24
2021/03/31 23:02:28;;;;;;;6.40;4.35;;;;;;;13.54;47.46;98546.03;3756423;79;43704;-24
2021/03/31 23:07:34;;;;;;;7.05;4.00;;;;;;;13.43;47.71;98541.02;3758590;79;44049;-24
2021/03/31 23:12:42;;;;;;;6.50;3.98;;;;;;;13.35;47.96;98547.27;3756858;77;44050;-24
2021/03/31 23:17:49;;;;;;;5.45;3.75;;;;;;;13.25;48.31;98533.95;3761356;77;44069;-24
2021/03/31 23:22:56;;;;;;;7.22;4.30;;;;;;;13.12;48.96;98529.60;3757609;77;44184;-24
2021/03/31 23:28:01;;;;;;;5.42;4.12;;;;;;;12.99;49.46;98532.05;3759819;79;44205;-24
2021/03/31 23:33:08;;;;;;;7.33;4.20;;;;;;;12.92;49.78;98531.38;3759282;78;43101;-24
2021/03/31 23:38:14;;;;;;;6.92;3.75;;;;;;;12.79;50.29;98525.66;3758974;79;44037;-24
2021/03/31 23:43:21;;;;;;;7.17;4.20;;;;;;;12.73;50.53;98518.25;3759125;79;44562;-25
2021/03/31 23:48:28;;;;;;;8.58;4.75;;;;;;;12.62;50.92;98525.72;3758992;77;44108;-26
2021/03/31 23:53:34;;;;;;;7.65;4.78;;;;;;;12.59;51.09;98521.13;3754189;77;44215;-26
2021/03/31 23:58:40;;;;;;;6.37;4.30;;;;;;;12.53;51.28;98511.86;3758190;77;43709;-26
